Time;durP1;ratioP1;P1;durP2;ratioP2;P2;SDS_P1;SDS_P2;PMS_P1;PMS_P2;Temp;Humidity;BMP_temperature;BMP_pressure;BME280_temperature;BME280_humidity;BME280_pressure;Samples;Min_cycle;Max_cycle;Signal;HPM_P1;HPM_P2
2023/03/30 00:01:23;;;;;;;9.90;1.88;;;;;;;15.22;100.00;100638.22;5221723;28;20017;-83
2023/03/30 00:03:54;;;;;;;9.45;2.17;;;;;;;15.45;100.00;100642.44;5206833;28;20053;-82
2023/03/30 00:06:25;;;;;;;7.53;2.38;;;;;;;15.45;100.00;100643.28;5206775;28;20049;-82
2023/03/30 00:08:56;;;;;;;9.68;2.22;;;;;;;15.54;100.00;100633.13;5222162;28;20036;-82
2023/03/30 00:11:27;;;;;;;8.38;2.30;;;;;;;15.54;100.00;100631.25;5206303;28;20056;-82
2023/03/30 00:13:57;;;;;;;8.63;1.80;;;;;;;15.51;100.00;100626.28;5203174;28;20041;-83
2023/03/30 00:16:28;;;;;;;5.05;1.90;;;;;;;15.54;100.00;100619.59;5206862;28;20032;-82
2023/03/30 00:18:59;;;;;;;6.28;1.92;;;;;;;15.53;100.00;100610.66;5207113;28;20028;-82
2023/03/30 00:21:29;;;;;;;5.20;1.88;;;;;;;15.49;100.00;100616.69;5207889;28;20041;-82
2023/03/30 00:24:00;;;;;;;9.15;1.70;;;;;;;15.48;100.00;100605.03;5207796;28;20031;-82
2023/03/30 00:26:31;;;;;;;7.40;1.88;;;;;;;15.44;100.00;100601.06;5205734;28;20323;-82
2023/03/30 00:29:01;;;;;;;10.60;2.10;;;;;;;15.41;100.00;100587.97;5207336;28;20021;-82
2023/03/30 00:31:32;;;;;;;10.35;2.13;;;;;;;15.38;100.00;100585.69;5206746;28;20028;-82
2023/03/30 00:34:02;;;;;;;4.28;1.88;;;;;;;15.43;100.00;100579.66;5206972;28;20025;-82
2023/03/30 00:36:36;;;;;;;6.70;1.83;;;;;;;15.41;100.00;100562.78;5206012;28;20021;-82
2023/03/30 00:39:07;;;;;;;7.60;1.83;;;;;;;15.45;100.00;100574.88;5207882;28;20037;-82
2023/03/30 00:41:38;;;;;;;6.50;2.03;;;;;;;15.41;100.00;100576.31;5206746;28;20420;-82
2023/03/30 00:44:47;;;;;;;8.45;1.77;;;;;;;15.42;100.00;100567.19;5207355;28;20055;-82
2023/03/30 00:47:18;;;;;;;5.30;1.60;;;;;;;15.36;100.00;100565.28;5206511;28;20442;-82
2023/03/30 00:49:49;;;;;;;10.85;1.80;;;;;;;15.29;100.00;100578.78;5206456;28;20061;-82
2023/03/30 00:52:23;;;;;;;3.92;1.58;;;;;;;15.24;100.00;100571.28;5207381;28;20080;-82
2023/03/30 00:54:55;;;;;;;4.97;2.05;;;;;;;15.23;100.00;100575.03;5205990;28;20064;-84
2023/03/30 00:57:26;;;;;;;7.05;1.55;;;;;;;15.26;100.00;100562.97;5206201;28;20036;-81
2023/03/30 00:59:57;;;;;;;5.47;2.22;;;;;;;15.27;100.00;100570.06;5207128;28;20057;-82
2023/03/30 01:02:31;;;;;;;5.25;1.58;;;;;;;15.18;100.00;100572.09;5207318;28;20052;-81
2023/03/30 01:05:03;;;;;;;6.53;1.67;;;;;;;15.11;100.00;100576.66;5206951;28;20053;-82
2023/03/30 01:07:36;;;;;;;7.35;1.90;;;;;;;15.00;100.00;100572.66;5205485;28;20061;-81
2023/03/30 01:10:15;;;;;;;6.15;1.73;;;;;;;14.92;100.00;100569.31;5205037;28;20457;-82
2023/03/30 01:13:04;;;;;;;8.93;1.65;;;;;;;14.91;100.00;100556.81;5206031;28;20033;-82
2023/03/30 01:15:43;;;;;;;3.83;1.73;;;;;;;14.82;100.00;100571.56;5205743;28;20079;-82
2023/03/30 01:18:46;;;;;;;6.80;1.60;;;;;;;14.73;100.00;100560.91;5205632;28;20030;-82
2023/03/30 01:21:28;;;;;;;3.85;1.40;;;;;;;14.69;100.00;100540.72;5194856;28;20087;-82
2023/03/30 01:24:26;;;;;;;5.00;1.48;;;;;;;14.71;100.00;100554.06;5205749;28;20033;-81
2023/03/30 01:27:44;;;;;;;8.40;1.40;;;;;;;14.72;100.00;100555.72;5194018;28;20037;-83
2023/03/30 01:30:26;;;;;;;4.78;1.60;;;;;;;14.60;100.00;100557.31;5200129;28;20068;-82
2023/03/30 01:33:34;;;;;;;4.75;2.00;;;;;;;14.57;100.00;100560.41;5205677;28;20080;-82
2023/03/30 01:36:44;;;;;;;6.85;1.52;;;;;;;14.54;100.00;100560.81;5205542;28;20455;-80
2023/03/30 01:39:32;;;;;;;5.28;1.50;;;;;;;14.48;100.00;100565.97;5205521;28;20339;-81
2023/03/30 01:42:36;;;;;;;7.85;1.92;;;;;;;14.52;100.00;100555.59;5204827;28;20056;-81
2023/03/30 01:45:10;;;;;;;7.32;1.38;;;;;;;14.55;100.00;100540.88;5204993;28;20029;-81
2023/03/30 01:47:59;;;;;;;4.18;1.50;;;;;;;14.56;100.00;100547.94;5219730;28;20053;-81
2023/03/30 01:50:37;;;;;;;4.38;1.30;;;;;;;14.56;100.00;100535.28;5204558;28;20029;-81
2023/03/30 01:53:17;;;;;;;6.10;1.77;;;;;;;14.50;100.00;100541.47;5204550;28;20025;-81
2023/03/30 01:56:09;;;;;;;12.32;1.65;;;;;;;14.48;100.00;100540.84;5199251;28;20026;-81
2023/03/30 01:58:55;;;;;;;6.22;1.65;;;;;;;14.39;100.00;100534.72;5204008;28;20024;-81
2023/03/30 02:01:28;;;;;;;4.80;1.30;;;;;;;14.38;100.00;100540.34;5204220;28;20033;-81
2023/03/30 02:04:03;;;;;;;7.32;2.20;;;;;;;14.42;100.00;100538.91;5192974;28;20567;-81
2023/03/30 02:06:39;;;;;;;5.85;1.42;;;;;;;14.42;100.00;100531.66;5204132;28;20036;-81
2023/03/30 02:09:16;;;;;;;7.93;1.75;;;;;;;14.42;100.00;100549.72;5203848;28;20033;-81
2023/03/30 02:11:50;;;;;;;4.93;1.45;;;;;;;14.44;100.00;100559.25;5204009;28;20019;-81
2023/03/30 02:14:37;;;;;;;4.05;1.40;;;;;;;14.51;100.00;100562.06;5192851;28;20027;-81
2023/03/30 02:17:15;;;;;;;6.75;1.55;;;;;;;14.62;100.00;100560.66;5203367;28;20033;-81
2023/03/30 02:19:46;;;;;;;6.25;1.80;;;;;;;14.70;100.00;100564.00;5203631;28;20025;-81
2023/03/30 02:22:19;;;;;;;6.50;1.73;;;;;;;14.79;100.00;100559.28;5203886;28;20398;-81
2023/03/30 02:24:53;;;;;;;5.45;1.55;;;;;;;14.83;100.00;100554.31;5203522;28;20071;-82
2023/03/30 02:27:25;;;;;;;8.17;1.87;;;;;;;14.86;100.00;100552.03;5203426;28;20037;-81
2023/03/30 02:29:56;;;;;;;6.03;1.88;;;;;;;14.89;100.00;100548.09;5202781;28;20107;-81
2023/03/30 02:32:35;;;;;;;7.85;2.17;;;;;;;14.93;100.00;100554.75;5192299;28;20502;-82
2023/03/30 02:35:25;;;;;;;4.95;1.30;;;;;;;14.88;100.00;100552.66;5206047;28;20147;-81
2023/03/30 02:38:14;;;;;;;5.95;1.65;;;;;;;14.87;100.00;100561.81;5206838;28;20030;-81
2023/03/30 02:41:07;;;;;;;6.88;1.77;;;;;;;14.88;100.00;100559.94;5207076;28;20024;-81
2023/03/30 02:43:48;;;;;;;6.70;1.60;;;;;;;14.85;100.00;100561.16;5206409;28;20026;-81
2023/03/30 02:46:38;;;;;;;6.57;1.67;;;;;;;14.84;100.00;100547.88;5205661;28;20033;-81
2023/03/30 02:49:47;;;;;;;4.03;1.30;;;;;;;14.85;100.00;100544.13;5206742;28;20029;-81
2023/03/30 02:52:41;;;;;;;6.60;1.70;;;;;;;14.87;100.00;100547.47;5206713;28;20036;-81
2023/03/30 02:56:04;;;;;;;10.25;2.97;;;;;;;14.89;100.00;100543.53;5201294;28;20106;-81
2023/03/30 02:58:56;;;;;;;5.15;1.58;;;;;;;14.86;100.00;100540.38;5154382;28;20057;-81
2023/03/30 03:01:48;;;;;;;4.90;1.33;;;;;;;14.85;100.00;100544.13;5206496;28;20025;-79
2023/03/30 03:04:21;;;;;;;4.78;1.42;;;;;;;14.82;100.00;100534.56;5207203;28;20037;-81
2023/03/30 03:06:54;;;;;;;6.95;1.90;;;;;;;14.83;100.00;100546.22;5207752;28;20398;-81
2023/03/30 03:09:25;;;;;;;3.38;1.40;;;;;;;14.76;100.00;100541.63;5207105;28;20025;-81
2023/03/30 03:11:55;;;;;;;5.85;1.63;;;;;;;14.74;100.00;100530.16;5207912;28;20525;-81
2023/03/30 03:14:26;;;;;;;2.97;1.42;;;;;;;14.75;100.00;100531.00;5208083;28;20044;-81
2023/03/30 03:16:56;;;;;;;10.40;1.85;;;;;;;14.71;100.00;100525.19;5207620;28;20386;-81
2023/03/30 03:19:26;;;;;;;6.03;1.50;;;;;;;14.70;100.00;100519.97;5207505;28;20493;-81
2023/03/30 03:21:57;;;;;;;7.50;2.13;;;;;;;14.67;100.00;100534.72;5223279;28;20025;-81
2023/03/30 03:24:27;;;;;;;3.83;1.33;;;;;;;14.65;100.00;100528.66;5207917;28;20041;-81
2023/03/30 03:26:58;;;;;;;6.05;1.60;;;;;;;14.64;100.00;100535.09;5205423;28;20100;-81
2023/03/30 03:29:28;;;;;;;8.88;1.77;;;;;;;14.59;100.00;100534.88;5206975;28;20017;-81
2023/03/30 03:31:59;;;;;;;8.70;2.05;;;;;;;14.50;100.00;100527.97;5201422;28;20021;-81
2023/03/30 03:34:30;;;;;;;7.82;1.60;;;;;;;14.41;100.00;100537.25;5211957;28;20053;-81
2023/03/30 03:37:01;;;;;;;10.55;1.85;;;;;;;14.38;100.00;100521.44;5226883;28;20108;-82
2023/03/30 03:39:31;;;;;;;11.15;1.75;;;;;;;14.37;100.00;100527.88;5211080;28;20033;-81
2023/03/30 03:42:03;;;;;;;7.55;1.55;;;;;;;14.33;100.00;100523.91;5211733;28;20018;-82
2023/03/30 03:44:36;;;;;;;6.93;2.35;;;;;;;14.24;100.00;100524.06;5210985;28;20036;-81
2023/03/30 03:47:07;;;;;;;4.82;1.55;;;;;;;14.15;100.00;100524.41;5210877;28;20030;-81
2023/03/30 03:49:37;;;;;;;9.25;2.13;;;;;;;14.12;100.00;100520.25;5211273;28;20054;-81
2023/03/30 03:52:09;;;;;;;6.38;1.60;;;;;;;14.09;100.00;100528.72;5211206;28;20040;-81
2023/03/30 03:54:40;;;;;;;7.55;1.50;;;;;;;14.06;100.00;100523.75;5203355;28;20030;-81
2023/03/30 03:57:10;;;;;;;6.82;2.08;;;;;;;14.10;100.00;100522.28;5207912;28;20033;-81
2023/03/30 03:59:41;;;;;;;10.52;2.17;;;;;;;14.08;100.00;100520.84;5208972;28;20049;-82
2023/03/30 04:02:11;;;;;;;7.03;1.80;;;;;;;14.12;100.00;100514.03;5206795;28;20037;-81
2023/03/30 04:04:43;;;;;;;6.93;1.65;;;;;;;14.15;100.00;100511.75;5206344;28;20371;-81
2023/03/30 04:07:13;;;;;;;8.38;2.17;;;;;;;14.19;100.00;100522.97;5206390;28;20101;-81
2023/03/30 04:09:44;;;;;;;7.65;1.60;;;;;;;14.18;100.00;100508.66;5206619;28;20465;-82
2023/03/30 04:12:14;;;;;;;3.67;1.33;;;;;;;14.16;100.00;100510.75;5204824;28;20022;-83
2023/03/30 04:14:45;;;;;;;7.63;2.28;;;;;;;14.17;100.00;100509.69;5200389;28;20045;-82
2023/03/30 04:17:15;;;;;;;3.95;1.23;;;;;;;14.18;100.00;100521.31;5205845;28;20508;-83
2023/03/30 04:19:46;;;;;;;3.25;1.40;;;;;;;14.21;100.00;100510.97;5206520;28;20036;-83
2023/03/30 04:22:18;;;;;;;6.15;1.67;;;;;;;14.17;100.00;100515.09;5206476;28;20048;-83
2023/03/30 04:24:50;;;;;;;3.83;1.30;;;;;;;14.16;100.00;100513.44;5206228;28;20087;-83
2023/03/30 04:27:20;;;;;;;4.03;1.73;;;;;;;14.18;100.00;100518.63;5198258;28;20022;-83
2023/03/30 04:29:51;;;;;;;6.75;1.63;;;;;;;14.14;100.00;100506.56;5206547;28;20051;-83
2023/03/30 04:32:21;;;;;;;4.78;1.58;;;;;;;14.19;100.00;100514.88;5208273;28;20072;-82
2023/03/30 04:34:53;;;;;;;5.25;1.45;;;;;;;14.17;100.00;100523.19;5208062;28;20079;-84
2023/03/30 04:37:29;;;;;;;4.47;1.40;;;;;;;14.11;100.00;100521.28;5206021;28;20433;-83
2023/03/30 04:40:01;;;;;;;6.15;1.73;;;;;;;14.08;100.00;100500.09;5204342;28;20026;-82
2023/03/30 04:42:33;;;;;;;8.18;1.60;;;;;;;14.05;100.00;100508.56;5208461;28;20025;-83
2023/03/30 04:45:05;;;;;;;6.70;1.40;;;;;;;14.03;100.00;100507.94;5206370;28;20120;-83
2023/03/30 04:47:35;;;;;;;6.38;1.20;;;;;;;14.00;100.00;100511.03;5205198;28;20087;-83
2023/03/30 04:50:06;;;;;;;6.03;1.48;;;;;;;13.98;100.00;100521.19;5208077;28;20025;-83
2023/03/30 04:52:36;;;;;;;8.35;2.03;;;;;;;13.99;100.00;100512.88;5208619;28;20068;-82
2023/03/30 04:55:08;;;;;;;5.07;1.48;;;;;;;13.99;100.00;100518.28;5205281;28;20040;-81
2023/03/30 04:57:39;;;;;;;5.50;1.90;;;;;;;13.96;100.00;100532.19;5206846;28;20028;-82
2023/03/30 05:00:11;;;;;;;5.57;1.83;;;;;;;13.90;100.00;100527.53;5208658;28;20017;-81
2023/03/30 05:02:41;;;;;;;10.63;3.70;;;;;;;13.92;100.00;100528.19;5209933;28;20025;-83
2023/03/30 05:05:12;;;;;;;10.32;4.00;;;;;;;13.92;100.00;100535.47;5199637;28;20474;-82
2023/03/30 05:07:42;;;;;;;20.38;7.78;;;;;;;13.91;100.00;100548.13;5206596;28;20030;-82
2023/03/30 05:10:13;;;;;;;22.20;8.05;;;;;;;13.81;100.00;100544.09;5208376;28;20032;-81
2023/03/30 05:12:43;;;;;;;5.75;1.98;;;;;;;13.63;100.00;100548.06;5207253;28;20029;-83
2023/03/30 05:15:14;;;;;;;6.50;2.28;;;;;;;13.48;100.00;100553.53;5223492;28;20120;-80
2023/03/30 05:17:45;;;;;;;6.70;1.98;;;;;;;13.41;100.00;100554.50;5206270;28;20108;-79
2023/03/30 05:20:17;;;;;;;6.05;2.15;;;;;;;13.37;100.00;100562.13;5207282;28;20075;-79
2023/03/30 05:22:48;;;;;;;4.55;1.80;;;;;;;13.31;100.00;100570.16;5207690;28;20029;-81
2023/03/30 05:25:19;;;;;;;7.80;1.70;;;;;;;13.32;100.00;100564.56;5206582;28;20061;-81
2023/03/30 05:27:49;;;;;;;7.40;1.73;;;;;;;13.26;100.00;100564.50;5208174;28;20053;-82
2023/03/30 05:30:20;;;;;;;3.15;1.70;;;;;;;13.27;100.00;100571.53;5207961;28;20087;-79
2023/03/30 05:32:50;;;;;;;4.53;1.42;;;;;;;13.24;100.00;100580.00;5207915;28;20037;-79
2023/03/30 05:35:21;;;;;;;17.95;7.78;;;;;;;13.19;100.00;100570.59;5208070;28;20049;-80
2023/03/30 05:37:53;;;;;;;310.17;106.78;;;;;;;13.12;100.00;100583.16;5207898;28;20491;-80
2023/03/30 05:40:23;;;;;;;157.20;56.65;;;;;;;13.10;100.00;100589.75;5208080;28;20045;-79
2023/03/30 05:42:54;;;;;;;35.47;12.88;;;;;;;13.05;100.00;100592.16;5207723;28;20535;-79
2023/03/30 05:45:24;;;;;;;16.70;3.25;;;;;;;13.00;100.00;100594.59;5206858;28;20064;-79
2023/03/30 05:47:55;;;;;;;18.23;8.07;;;;;;;12.96;100.00;100591.47;5207983;28;20080;-82
2023/03/30 05:50:25;;;;;;;22.13;8.60;;;;;;;12.93;100.00;100591.81;5208784;28;20056;-82
2023/03/30 05:52:56;;;;;;;75.65;23.75;;;;;;;12.87;100.00;100592.56;5208375;28;20044;-81
2023/03/30 05:55:27;;;;;;;14.43;4.28;;;;;;;12.87;100.00;100596.09;5198686;28;20025;-82
2023/03/30 05:57:58;;;;;;;39.47;16.30;;;;;;;12.85;100.00;100602.69;5207807;28;20456;-83
2023/03/30 06:00:32;;;;;;;33.33;15.02;;;;;;;12.82;100.00;100595.81;5208878;28;20094;-82
2023/03/30 06:03:03;;;;;;;12.57;5.90;;;;;;;12.79;100.00;100604.25;5208301;28;20060;-81
2023/03/30 06:05:38;;;;;;;10.52;3.25;;;;;;;12.79;100.00;100606.97;5209042;28;20025;-82
2023/03/30 06:08:09;;;;;;;18.63;9.13;;;;;;;12.79;100.00;100614.19;5208846;28;20112;-84
2023/03/30 06:10:40;;;;;;;19.63;6.03;;;;;;;12.68;100.00;100612.81;5208344;28;20086;-83
2023/03/30 06:13:11;;;;;;;11.68;3.72;;;;;;;12.63;100.00;100618.75;5209080;28;20029;-80
2023/03/30 06:15:44;;;;;;;19.92;8.45;;;;;;;12.66;100.00;100631.84;5208667;28;20094;-82
2023/03/30 06:18:14;;;;;;;77.53;32.08;;;;;;;12.90;100.00;100640.66;5207323;28;20025;-79
2023/03/30 06:20:46;;;;;;;13.93;6.50;;;;;;;13.36;100.00;100645.84;5223762;28;20148;-79
2023/03/30 06:23:17;;;;;;;13.00;2.58;;;;;;;13.81;100.00;100639.28;5207151;28;20036;-80
2023/03/30 06:25:51;;;;;;;11.55;2.83;;;;;;;14.25;100.00;100647.13;5202887;28;20021;-81
2023/03/30 06:28:22;;;;;;;12.13;3.28;;;;;;;14.55;100.00;100638.03;5206436;28;20447;-80
2023/03/30 06:30:52;;;;;;;11.55;3.03;;;;;;;14.65;100.00;100631.25;5207666;28;20035;-80
2023/03/30 06:33:24;;;;;;;8.88;1.75;;;;;;;14.41;100.00;100635.25;5203340;28;20026;-80
2023/03/30 06:35:55;;;;;;;17.75;2.53;;;;;;;14.06;100.00;100634.34;5202669;28;20025;-80
2023/03/30 06:38:26;;;;;;;9.07;2.00;;;;;;;13.53;100.00;100639.19;5222858;28;20029;-80
2023/03/30 06:40:56;;;;;;;9.10;2.10;;;;;;;13.39;100.00;100640.06;5207761;28;20473;-81
2023/03/30 06:43:27;;;;;;;135.50;82.28;;;;;;;13.30;100.00;100636.63;5208350;28;20112;-80
2023/03/30 06:45:58;;;;;;;20.15;3.15;;;;;;;13.13;100.00;100638.69;5207700;28;20052;-80
2023/03/30 06:48:28;;;;;;;12.65;3.10;;;;;;;13.11;100.00;100648.00;5207682;28;20032;-80
2023/03/30 06:50:59;;;;;;;9.18;2.25;;;;;;;13.12;100.00;100650.50;5207710;28;20120;-80
2023/03/30 06:53:30;;;;;;;9.63;2.35;;;;;;;12.98;100.00;100651.34;5207105;28;20108;-80
2023/03/30 06:56:00;;;;;;;14.18;2.67;;;;;;;12.89;100.00;100647.88;5212676;28;20036;-80
2023/03/30 06:58:32;;;;;;;13.13;2.25;;;;;;;12.83;100.00;100648.63;5207061;28;20501;-79
2023/03/30 07:01:21;;;;;;;17.42;2.60;;;;;;;12.87;100.00;100644.56;5220175;28;20429;-79
2023/03/30 07:03:52;;;;;;;15.43;2.70;;;;;;;12.86;100.00;100640.19;5201745;28;20025;-80
2023/03/30 07:06:23;;;;;;;16.05;2.13;;;;;;;12.88;100.00;100645.41;5202737;28;20025;-80
2023/03/30 07:08:53;;;;;;;13.00;3.33;;;;;;;13.47;100.00;100653.44;5202438;28;20060;-81
2023/03/30 07:11:25;;;;;;;23.75;7.30;;;;;;;14.45;100.00;100652.69;5204113;28;20033;-80
2023/03/30 07:13:57;;;;;;;22.90;11.32;;;;;;;14.89;100.00;100650.72;5206560;28;20033;-80
2023/03/30 07:16:27;;;;;;;14.02;3.92;;;;;;;15.01;100.00;100649.16;5220906;28;20029;-80
2023/03/30 07:18:58;;;;;;;24.88;9.32;;;;;;;14.92;100.00;100651.19;5206088;28;20040;-81
2023/03/30 07:21:28;;;;;;;24.80;8.98;;;;;;;14.92;100.00;100653.88;5205224;28;20159;-80
2023/03/30 07:24:00;;;;;;;32.17;13.15;;;;;;;15.02;100.00;100658.91;5206317;28;20509;-80
2023/03/30 07:26:30;;;;;;;35.65;17.90;;;;;;;15.04;100.00;100664.94;5202444;28;20048;-82
2023/03/30 07:29:01;;;;;;;13.13;4.30;;;;;;;14.92;100.00;100672.78;5221524;28;20051;-81
2023/03/30 07:31:32;;;;;;;20.55;3.63;;;;;;;14.66;100.00;100665.34;5205642;28;20038;-77
2023/03/30 07:34:03;;;;;;;18.00;5.65;;;;;;;14.60;100.00;100674.22;5201154;28;20026;-79
2023/03/30 07:36:33;;;;;;;18.20;3.35;;;;;;;14.40;100.00;100678.59;5204235;28;20457;-78
2023/03/30 07:39:05;;;;;;;15.32;3.08;;;;;;;14.39;100.00;100683.16;5205171;28;20412;-79
2023/03/30 07:41:36;;;;;;;17.60;2.85;;;;;;;14.47;100.00;100679.50;5205513;28;20029;-79
2023/03/30 07:44:06;;;;;;;21.42;3.60;;;;;;;14.44;100.00;100693.38;5206546;28;20028;-79
2023/03/30 07:46:37;;;;;;;12.13;2.63;;;;;;;14.66;100.00;100692.34;5220458;28;20112;-77
2023/03/30 07:49:08;;;;;;;16.83;2.50;;;;;;;14.57;100.00;100696.22;5204737;28;20026;-79
2023/03/30 07:51:38;;;;;;;13.27;2.08;;;;;;;14.52;100.00;100708.63;5204516;28;20037;-79
2023/03/30 07:54:09;;;;;;;14.50;2.88;;;;;;;14.36;100.00;100707.03;5200073;28;20022;-79
2023/03/30 07:56:41;;;;;;;22.67;2.95;;;;;;;14.59;100.00;100710.34;5204577;28;20088;-79
2023/03/30 07:59:12;;;;;;;21.20;3.08;;;;;;;14.76;100.00;100702.81;5204988;28;20112;-78
2023/03/30 08:01:43;;;;;;;15.40;2.65;;;;;;;15.53;100.00;100699.06;5201960;28;20538;-79
2023/03/30 08:04:16;;;;;;;14.63;2.88;;;;;;;15.95;100.00;100705.22;5200757;28;20509;-79
2023/03/30 08:06:48;;;;;;;13.65;2.35;;;;;;;16.62;100.00;100716.94;5200935;28;20429;-79
2023/03/30 08:09:19;;;;;;;16.10;2.78;;;;;;;16.85;100.00;100714.69;5202109;28;20032;-78
2023/03/30 08:11:49;;;;;;;15.80;2.53;;;;;;;17.27;100.00;100713.34;5202052;28;20440;-79
2023/03/30 08:14:22;;;;;;;14.80;3.00;;;;;;;18.02;100.00;100702.78;5202251;28;20032;-79
2023/03/30 08:16:53;;;;;;;19.75;3.03;;;;;;;17.56;100.00;100711.97;5202246;28;20482;-78
2023/03/30 08:19:24;;;;;;;19.42;3.58;;;;;;;16.61;100.00;100708.00;5206088;28;20105;-78
2023/03/30 08:21:55;;;;;;;16.40;3.38;;;;;;;15.98;100.00;100715.66;5206656;28;20108;-79
2023/03/30 08:24:26;;;;;;;23.73;6.18;;;;;;;15.34;100.00;100716.00;5207445;28;20390;-79
2023/03/30 08:26:56;;;;;;;19.10;3.42;;;;;;;14.71;100.00;100722.28;5203436;28;20041;-79
2023/03/30 08:29:28;;;;;;;23.83;8.25;;;;;;;14.51;100.00;100726.69;5206624;28;20800;-79
2023/03/30 08:31:58;;;;;;;28.88;11.63;;;;;;;14.44;100.00;100731.16;5222246;28;20029;-78
2023/03/30 08:34:29;;;;;;;29.90;9.20;;;;;;;14.24;100.00;100742.59;5203629;28;20032;-78
2023/03/30 08:37:00;;;;;;;33.92;11.02;;;;;;;14.07;100.00;100748.47;5199948;28;20030;-78
2023/03/30 08:39:31;;;;;;;20.10;4.40;;;;;;;13.95;100.00;100745.41;5206342;28;20021;-78
2023/03/30 08:42:30;;;;;;;22.67;6.75;;;;;;;13.88;100.00;100731.03;5207518;28;20389;-79
2023/03/30 08:45:04;;;;;;;18.35;3.45;;;;;;;13.76;100.00;100732.56;5205982;28;20025;-78
2023/03/30 08:47:38;;;;;;;22.33;3.00;;;;;;;13.85;100.00;100742.19;5203741;28;20049;-78
2023/03/30 08:50:15;;;;;;;22.15;3.55;;;;;;;14.30;100.00;100740.16;5205591;28;20029;-78
2023/03/30 08:52:46;;;;;;;14.63;2.95;;;;;;;14.33;100.00;100740.63;5207855;28;20317;-78
2023/03/30 08:55:36;;;;;;;25.10;6.55;;;;;;;15.27;100.00;100743.84;5204930;28;20032;-78
2023/03/30 08:58:28;;;;;;;15.10;3.78;;;;;;;15.85;100.00;100748.91;5205494;28;20391;-79
2023/03/30 09:01:15;;;;;;;17.38;4.18;;;;;;;16.11;100.00;100752.72;5205620;28;20155;-79
2023/03/30 09:04:23;;;;;;;18.42;4.65;;;;;;;16.46;100.00;100756.94;5206060;28;20029;-78
2023/03/30 09:07:16;;;;;;;22.88;3.55;;;;;;;16.36;100.00;100748.38;5201953;28;20033;-79
2023/03/30 09:09:50;;;;;;;10.85;3.58;;;;;;;16.63;100.00;100753.84;5196889;28;20057;-79
2023/03/30 09:12:42;;;;;;;14.95;2.97;;;;;;;16.51;100.00;100761.72;5205004;28;20087;-79
2023/03/30 09:15:17;;;;;;;18.27;3.78;;;;;;;16.22;100.00;100768.38;5205788;28;20025;-79
2023/03/30 09:18:06;;;;;;;;;;;;;;;16.18;100.00;100773.38;5204376;28;20071;-79
2023/03/30 09:20:39;;;;;;;18.90;3.67;;;;;;;15.91;100.00;100768.91;5203791;28;19913;-79
2023/03/30 09:23:15;;;;;;;22.15;3.67;;;;;;;15.32;100.00;100761.34;5205886;28;20026;-78
2023/03/30 09:26:05;;;;;;;18.42;3.13;;;;;;;15.34;100.00;100762.81;5203775;28;20124;-78
2023/03/30 09:29:02;;;;;;;12.73;3.15;;;;;;;15.12;100.00;100774.72;5223249;28;20041;-79
2023/03/30 09:31:57;;;;;;;15.55;3.55;;;;;;;14.91;100.00;100781.00;5207199;28;20041;-78
2023/03/30 09:34:34;;;;;;;14.82;2.53;;;;;;;14.74;100.00;100786.69;5208632;28;20021;-78
2023/03/30 09:37:10;;;;;;;15.05;3.60;;;;;;;14.76;100.00;100781.94;5206170;28;20119;-78
2023/03/30 09:39:40;;;;;;;17.85;3.63;;;;;;;15.18;100.00;100787.44;5221023;28;20030;-78
2023/03/30 09:42:36;;;;;;;16.30;2.55;;;;;;;15.43;100.00;100785.94;5204755;28;20029;-78
2023/03/30 09:45:29;;;;;;;21.58;3.30;;;;;;;15.68;100.00;100780.06;5205563;28;20513;-78
2023/03/30 09:48:18;;;;;;;20.33;3.45;;;;;;;15.85;100.00;100792.19;5220690;28;20151;-78
2023/03/30 09:50:49;;;;;;;22.30;3.53;;;;;;;16.40;100.00;100784.84;5204294;28;20229;-78
2023/03/30 09:53:41;;;;;;;24.67;3.47;;;;;;;16.87;100.00;100784.91;5205557;28;20543;-78
2023/03/30 09:56:46;;;;;;;16.10;3.15;;;;;;;16.40;100.00;100786.72;5200070;28;20024;-78
2023/03/30 09:59:36;;;;;;;18.42;3.35;;;;;;;15.73;100.00;100789.25;5205371;28;20052;-78
2023/03/30 10:02:08;;;;;;;21.80;4.68;;;;;;;15.46;100.00;100796.38;5205872;28;20116;-78
2023/03/30 10:04:51;;;;;;;14.23;2.50;;;;;;;15.24;100.00;100792.06;5205945;28;20078;-78
2023/03/30 10:07:37;;;;;;;17.35;2.72;;;;;;;14.73;100.00;100805.81;5204994;28;20124;-78
2023/03/30 10:10:38;;;;;;;14.43;2.22;;;;;;;14.16;100.00;100798.56;5204510;28;20022;-78
2023/03/30 10:13:46;;;;;;;13.35;2.63;;;;;;;14.20;100.00;100799.84;5195942;28;20030;-78
2023/03/30 10:16:25;;;;;;;15.07;2.47;;;;;;;14.96;100.00;100801.03;5199844;28;20535;-78
2023/03/30 10:19:30;;;;;;;15.38;2.85;;;;;;;15.35;100.00;100799.59;5206174;28;20089;-78
2023/03/30 10:22:03;;;;;;;13.30;2.85;;;;;;;15.78;100.00;100799.44;5205821;28;20466;-79
2023/03/30 10:24:35;;;;;;;17.38;2.88;;;;;;;15.89;100.00;100789.91;5205959;28;20056;-78
2023/03/30 10:27:10;;;;;;;12.07;2.40;;;;;;;16.20;100.00;100795.63;5199516;28;20478;-79
2023/03/30 10:30:07;;;;;;;11.52;2.63;;;;;;;16.01;100.00;100793.69;5205045;28;20060;-79
2023/03/30 10:32:44;;;;;;;19.65;2.65;;;;;;;15.07;100.00;100813.16;5205169;28;20371;-78
2023/03/30 10:35:35;;;;;;;19.95;3.45;;;;;;;14.91;100.00;100818.81;5219079;28;20029;-78
2023/03/30 10:38:09;;;;;;;12.68;2.58;;;;;;;15.07;100.00;100815.84;5199810;28;20041;-78
2023/03/30 10:40:43;;;;;;;16.77;3.15;;;;;;;15.11;100.00;100809.03;5215793;28;20059;-78
2023/03/30 10:43:18;;;;;;;13.90;2.53;;;;;;;15.36;100.00;100808.53;5201549;28;20031;-78
2023/03/30 10:45:52;;;;;;;13.98;2.50;;;;;;;15.46;100.00;100814.41;5201733;28;20026;-78
2023/03/30 10:48:40;;;;;;;15.32;5.18;;;;;;;15.48;100.00;100806.97;5201572;28;20071;-78
2023/03/30 10:51:26;;;;;;;14.55;3.47;;;;;;;15.70;100.00;100816.66;5201210;28;20033;-78
2023/03/30 10:54:19;;;;;;;11.38;2.88;;;;;;;15.64;100.00;100824.75;5198802;28;20124;-78
2023/03/30 10:56:53;;;;;;;8.23;2.00;;;;;;;15.51;100.00;100812.81;5197032;28;20021;-77
2023/03/30 10:59:43;;;;;;;11.25;2.55;;;;;;;15.31;100.00;100813.72;5200729;28;20061;-78
2023/03/30 11:02:29;;;;;;;12.68;2.95;;;;;;;15.14;100.00;100808.63;5201655;28;20052;-78
2023/03/30 11:05:15;;;;;;;10.65;3.08;;;;;;;15.23;100.00;100809.31;5201838;28;20029;-78
2023/03/30 11:07:51;;;;;;;9.35;1.83;;;;;;;15.83;100.00;100810.50;5201568;28;20092;-78
2023/03/30 11:10:29;;;;;;;20.65;2.97;;;;;;;15.67;100.00;100824.38;5214714;28;20025;-78
2023/03/30 11:13:01;;;;;;;15.23;2.85;;;;;;;15.52;100.00;100811.78;5200813;28;20071;-78
2023/03/30 11:15:39;;;;;;;15.73;2.53;;;;;;;15.55;100.00;100824.88;5202031;28;20029;-78
2023/03/30 11:18:29;;;;;;;14.65;2.97;;;;;;;15.64;100.00;100827.47;5201379;28;20068;-77
2023/03/30 11:21:04;;;;;;;15.43;2.55;;;;;;;15.93;100.00;100816.38;5200561;28;20025;-78
2023/03/30 11:23:52;;;;;;;15.68;3.00;;;;;;;16.01;100.00;100815.34;5202125;28;20109;-78
2023/03/30 11:26:34;;;;;;;17.55;3.08;;;;;;;15.56;100.00;100828.41;5200514;28;20041;-80
2023/03/30 11:29:27;;;;;;;17.55;2.95;;;;;;;15.41;100.00;100819.59;5202078;28;20032;-82
2023/03/30 11:32:14;;;;;;;14.70;3.45;;;;;;;15.57;100.00;100827.41;5201891;28;20061;-82
2023/03/30 11:35:22;;;;;;;14.80;3.47;;;;;;;15.69;100.00;100830.41;5217923;28;20767;-83
2023/03/30 11:38:26;;;;;;;13.88;2.95;;;;;;;16.14;100.00;100806.44;5194110;28;20080;-84
2023/03/30 11:41:00;;;;;;;16.15;2.88;;;;;;;16.56;100.00;100808.81;5200045;28;20025;-83
2023/03/30 11:43:31;;;;;;;15.18;3.42;;;;;;;16.63;100.00;100822.38;5202604;28;20032;-84
2023/03/30 11:46:21;;;;;;;14.60;2.97;;;;;;;16.38;100.00;100819.44;5202692;28;20390;-81
2023/03/30 11:48:53;;;;;;;11.52;2.60;;;;;;;15.73;100.00;100834.38;5202947;28;20037;-83
2023/03/30 11:51:59;;;;;;;23.05;4.38;;;;;;;15.91;100.00;100820.31;5201032;28;20463;-78
2023/03/30 11:54:50;;;;;;;17.33;2.67;;;;;;;15.96;100.00;100815.13;5205748;28;20057;-79
2023/03/30 11:57:45;;;;;;;13.90;3.28;;;;;;;16.26;100.00;100815.63;5199889;28;20048;-79